Time;durP1;ratioP1;P1;durP2;ratioP2;P2;SDS_P1;SDS_P2;PMS_P1;PMS_P2;Temp;Humidity;BMP_temperature;BMP_pressure;BME280_temperature;BME280_humidity;BME280_pressure;Samples;Min_cycle;Max_cycle;Signal;HPM_P1;HPM_P2
2023/02/04 00:00:38;;;;;;;10.53;6.43;;;-0.30;99.90;;;-0.66;83.09;99635.59;5049028;28;20251;-66
2023/02/04 00:03:08;;;;;;;11.03;7.43;;;-0.30;99.90;;;-0.70;83.22;99631.28;5041866;28;20193;-68
2023/02/04 00:05:37;;;;;;;11.20;7.13;;;-0.40;99.90;;;-0.70;83.26;99650.63;5048525;28;20284;-66
2023/02/04 00:08:05;;;;;;;10.10;7.57;;;-0.40;99.90;;;-0.70;83.33;99655.69;5050447;28;20228;-66
2023/02/04 00:10:34;;;;;;;11.77;7.43;;;-0.40;99.90;;;-0.70;83.63;99668.34;5044275;28;20275;-65
2023/02/04 00:13:02;;;;;;;11.50;7.33;;;-0.40;99.90;;;-0.71;83.64;99669.16;5048888;28;20218;-64
2023/02/04 00:15:31;;;;;;;9.97;6.30;;;-0.40;99.90;;;-0.70;83.40;99684.41;5044472;28;20307;-66
2023/02/04 00:17:59;;;;;;;8.70;6.40;;;-0.40;99.90;;;-0.70;83.77;99692.00;5050688;28;20216;-65
2023/02/04 00:20:29;;;;;;;10.07;6.93;;;-0.40;99.90;;;-0.71;83.65;99709.66;5043363;28;20244;-66
2023/02/04 00:22:58;;;;;;;10.73;6.87;;;-0.40;99.90;;;-0.71;83.69;99710.50;5049203;28;20303;-68
2023/02/04 00:25:27;;;;;;;10.83;6.73;;;-0.40;99.90;;;-0.70;83.62;99714.75;5049332;28;20668;-68
2023/02/04 00:27:55;;;;;;;8.90;6.20;;;-0.40;99.90;;;-0.72;83.60;99713.84;5050579;28;20222;-69
2023/02/04 00:30:23;;;;;;;10.70;6.33;;;-0.40;99.90;;;-0.71;84.13;99725.69;5064288;28;20261;-63
2023/02/04 00:32:53;;;;;;;8.63;6.30;;;-0.40;99.90;;;-0.72;83.88;99718.91;5062901;28;20225;-64
2023/02/04 00:35:22;;;;;;;9.93;6.13;;;-0.40;99.90;;;-0.74;83.85;99721.41;5067509;28;20202;-63
2023/02/04 00:37:53;;;;;;;9.53;5.90;;;-0.40;99.90;;;-0.77;83.79;99739.03;5056004;28;20215;-65
2023/02/04 00:40:23;;;;;;;10.33;6.00;;;-0.40;99.90;;;-0.80;83.85;99746.53;5064785;28;20206;-64
2023/02/04 00:42:51;;;;;;;8.10;5.83;;;-0.50;99.90;;;-0.84;84.04;99753.97;5069190;28;20202;-64
2023/02/04 00:45:20;;;;;;;10.30;6.60;;;-0.50;99.90;;;-0.88;84.30;99762.28;5067182;28;20614;-64
2023/02/04 00:47:49;;;;;;;9.97;6.00;;;-0.50;99.90;;;-0.91;84.55;99770.63;5067894;28;20228;-63
2023/02/04 00:50:18;;;;;;;8.33;6.07;;;-0.50;99.90;;;-0.91;84.39;99780.75;5056326;28;20194;-62
2023/02/04 00:52:46;;;;;;;9.07;6.47;;;-0.50;99.90;;;-0.92;84.69;99779.03;5069904;28;20623;-64
2023/02/04 00:55:17;;;;;;;10.10;6.50;;;-0.50;99.90;;;-0.91;84.57;99780.75;5072472;28;20270;-63
2023/02/04 00:57:46;;;;;;;8.90;6.03;;;-0.60;99.90;;;-0.94;84.51;99794.97;5070301;28;20262;-63
2023/02/04 01:00:18;;;;;;;6.53;5.70;;;-0.60;99.90;;;-0.93;84.43;99800.06;5070322;28;20252;-63
2023/02/04 01:02:46;;;;;;;8.27;6.03;;;-0.60;99.90;;;-0.94;84.34;99817.72;5068596;28;20213;-63
2023/02/04 01:05:15;;;;;;;10.50;6.50;;;-0.60;99.90;;;-0.97;84.68;99829.47;5068733;28;20201;-63
2023/02/04 01:07:43;;;;;;;8.80;6.10;;;-0.60;99.90;;;-0.97;84.55;99834.50;5067105;28;20279;-65
2023/02/04 01:10:12;;;;;;;7.77;5.70;;;-0.60;99.90;;;-1.01;84.22;99837.75;5067602;28;20213;-65
2023/02/04 01:12:42;;;;;;;9.23;5.87;;;-0.60;99.90;;;-0.98;84.32;99849.66;5070718;28;20304;-63
2023/02/04 01:15:11;;;;;;;8.57;6.07;;;-0.60;99.90;;;-0.97;84.15;99852.22;5071497;28;20209;-65
2023/02/04 01:17:40;;;;;;;8.43;5.90;;;-0.60;99.90;;;-0.97;84.37;99862.31;5070597;28;20214;-64
2023/02/04 01:20:10;;;;;;;7.83;5.97;;;-0.60;99.90;;;-0.98;84.50;99872.41;5071733;28;20228;-64
2023/02/04 01:22:39;;;;;;;6.30;4.77;;;-0.60;99.90;;;-0.98;84.36;99880.84;5070780;28;20266;-64
2023/02/04 01:25:08;;;;;;;7.13;5.40;;;-0.60;99.90;;;-0.96;83.80;99875.81;5070082;28;20207;-64
2023/02/04 01:27:36;;;;;;;7.63;5.67;;;-0.60;99.90;;;-0.91;83.99;99891.16;5068843;28;20206;-64
2023/02/04 01:30:08;;;;;;;7.70;5.87;;;-0.60;99.90;;;-0.91;83.69;99893.69;5070810;28;20263;-64
2023/02/04 01:32:37;;;;;;;8.17;5.70;;;-0.60;99.90;;;-0.85;83.85;99904.00;5068636;28;20198;-65
2023/02/04 01:35:06;;;;;;;6.83;5.40;;;-0.60;99.90;;;-0.83;84.25;99917.56;5070703;28;20218;-64
2023/02/04 01:37:34;;;;;;;7.47;5.30;;;-0.50;99.90;;;-0.83;83.67;99920.09;5069944;28;20210;-64
2023/02/04 01:40:04;;;;;;;6.80;5.10;;;-0.50;99.90;;;-0.81;83.28;99928.56;5061620;28;20202;-64
2023/02/04 01:42:32;;;;;;;7.17;5.30;;;-0.50;99.90;;;-0.82;83.00;99934.44;5066705;28;20705;-64
2023/02/04 01:45:01;;;;;;;7.57;5.13;;;-0.50;99.90;;;-0.81;83.03;99939.56;5068840;28;20198;-63
2023/02/04 01:47:31;;;;;;;9.53;5.80;;;-0.50;99.90;;;-0.82;82.66;99954.69;5069922;28;20206;-64
2023/02/04 01:50:00;;;;;;;6.47;5.40;;;-0.50;99.90;;;-0.80;83.00;99968.25;5068700;28;20295;-63
2023/02/04 01:52:31;;;;;;;9.43;5.77;;;-0.50;99.90;;;-0.82;83.18;99968.19;5069710;28;20232;-65
2023/02/04 01:54:59;;;;;;;8.20;5.27;;;-0.50;99.90;;;-0.81;82.64;99979.16;5070554;28;20217;-63
2023/02/04 01:57:28;;;;;;;6.13;5.37;;;-0.50;99.90;;;-0.82;82.91;99995.16;5063051;28;20228;-65
2023/02/04 01:59:57;;;;;;;7.23;5.30;;;-0.50;99.90;;;-0.82;82.66;100003.59;5065225;28;20210;-63
2023/02/04 02:02:42;;;;;;;5.90;4.93;;;-0.50;99.90;;;-0.84;82.92;100002.69;5058294;28;20202;-65
2023/02/04 02:05:15;;;;;;;9.30;4.80;;;-0.40;99.90;;;-0.83;82.66;100019.59;5069590;28;20204;-63
2023/02/04 02:07:44;;;;;;;6.90;5.07;;;-0.50;99.90;;;-0.86;82.73;100014.44;5069229;28;20202;-65
2023/02/04 02:10:13;;;;;;;7.00;4.97;;;-0.50;99.90;;;-0.84;82.65;100028.00;5066793;28;20211;-64
2023/02/04 02:12:44;;;;;;;7.53;4.73;;;-0.40;99.90;;;-0.80;82.92;100036.56;5069465;28;20210;-65
2023/02/04 02:15:14;;;;;;;7.10;5.23;;;-0.50;99.90;;;-0.80;82.57;100044.13;5065933;28;20222;-65
2023/02/04 02:17:44;;;;;;;8.03;4.60;;;-0.50;99.90;;;-0.81;82.54;100055.03;5062499;28;20226;-62
2023/02/04 02:20:16;;;;;;;6.63;4.73;;;-0.50;99.90;;;-0.79;82.16;100078.72;5068036;28;20271;-65
2023/02/04 02:22:58;;;;;;;6.67;4.67;;;-0.40;99.90;;;-0.79;82.09;100092.25;5069337;28;20203;-64
2023/02/04 02:25:27;;;;;;;5.97;4.50;;;-0.40;99.90;;;-0.78;81.75;100093.09;5065735;28;20627;-63
2023/02/04 02:27:58;;;;;;;8.50;4.40;;;-0.50;99.90;;;-0.78;82.19;100105.75;5067668;28;20230;-64
2023/02/04 02:30:28;;;;;;;9.13;4.93;;;-0.40;99.90;;;-0.76;81.88;100116.78;5067651;28;20226;-64
2023/02/04 02:32:58;;;;;;;6.37;4.67;;;-0.40;99.90;;;-0.76;81.85;100126.91;5069490;28;20217;-65
2023/02/04 02:35:26;;;;;;;5.57;4.33;;;-0.40;99.90;;;-0.81;81.66;100128.41;5056981;28;20252;-64
2023/02/04 02:37:55;;;;;;;5.13;4.43;;;-0.50;99.90;;;-0.76;81.48;100142.94;5067200;28;20291;-64
2023/02/04 02:40:23;;;;;;;6.47;4.63;;;-0.40;99.90;;;-0.74;81.15;100148.03;5068151;28;20202;-64
2023/02/04 02:42:54;;;;;;;7.07;4.13;;;-0.40;99.90;;;-0.74;81.33;100155.63;5067558;28;20536;-63
2023/02/04 02:45:27;;;;;;;6.37;4.10;;;-0.40;99.90;;;-0.73;81.16;100172.56;5068363;28;20191;-64
2023/02/04 02:47:58;;;;;;;5.77;4.33;;;-0.40;99.90;;;-0.71;80.87;100178.53;5068633;28;20201;-64
2023/02/04 02:50:31;;;;;;;4.90;4.00;;;-0.40;99.90;;;-0.70;80.96;100182.78;5067343;28;20267;-64
2023/02/04 02:53:00;;;;;;;6.20;4.27;;;-0.40;99.90;;;-0.70;81.06;100199.63;5065976;28;20725;-64
2023/02/04 02:55:29;;;;;;;5.30;4.10;;;-0.40;99.90;;;-0.69;80.53;100214.88;5067951;28;20272;-63
2023/02/04 02:57:59;;;;;;;6.40;4.20;;;-0.40;99.90;;;-0.67;80.54;100217.44;5064980;28;20263;-64
2023/02/04 03:00:29;;;;;;;5.50;4.20;;;-0.40;99.90;;;-0.66;80.53;100225.09;5066960;28;20205;-63
2023/02/04 03:03:03;;;;;;;6.10;4.20;;;-0.40;99.90;;;-0.62;80.48;100231.16;5068334;28;20641;-63
2023/02/04 03:05:39;;;;;;;6.03;4.47;;;-0.30;99.90;;;-0.60;80.34;100235.44;5061011;28;20236;-63
2023/02/04 03:08:09;;;;;;;4.60;3.73;;;-0.30;99.90;;;-0.61;80.19;100233.72;5062105;28;20619;-64
2023/02/04 03:10:38;;;;;;;4.67;3.70;;;-0.30;99.90;;;-0.58;80.07;100243.94;5070061;28;20202;-64
2023/02/04 03:13:08;;;;;;;8.43;4.10;;;-0.30;99.90;;;-0.59;79.87;100254.91;5069660;28;20213;-63
2023/02/04 03:15:37;;;;;;;6.67;4.40;;;-0.30;99.90;;;-0.59;79.94;100257.41;5066738;28;20209;-63
2023/02/04 03:18:06;;;;;;;8.07;4.13;;;-0.30;99.90;;;-0.58;79.68;100263.34;5063846;28;20232;-63
2023/02/04 03:20:35;;;;;;;6.77;3.87;;;-0.30;99.90;;;-0.57;79.76;100287.84;5068770;28;20244;-64
2023/02/04 03:23:03;;;;;;;6.00;3.97;;;-0.30;99.90;;;-0.56;80.01;100298.00;5063389;28;20300;-63
2023/02/04 03:25:32;;;;;;;6.53;3.90;;;-0.30;99.90;;;-0.57;79.94;100295.41;5066946;28;20202;-64
2023/02/04 03:28:01;;;;;;;4.63;3.70;;;-0.30;99.90;;;-0.57;79.83;100308.06;5069851;28;20222;-63
2023/02/04 03:30:30;;;;;;;5.80;4.40;;;-0.30;99.90;;;-0.57;79.89;100326.66;5067735;28;20320;-65
2023/02/04 03:33:00;;;;;;;5.83;3.77;;;-0.30;99.90;;;-0.57;80.07;100336.78;5070164;28;20271;-62
2023/02/04 03:35:29;;;;;;;5.60;4.30;;;-0.30;99.90;;;-0.58;80.14;100335.06;5066316;28;20219;-65
2023/02/04 03:37:57;;;;;;;7.20;3.97;;;-0.30;99.90;;;-0.58;80.21;100354.44;5064710;28;20214;-63
2023/02/04 03:40:26;;;;;;;6.37;4.07;;;-0.20;99.90;;;-0.57;80.48;100361.22;5066290;28;20205;-61
2023/02/04 03:42:54;;;;;;;8.17;3.70;;;-0.20;99.90;;;-0.58;80.43;100355.31;5066587;28;20209;-63
2023/02/04 03:45:22;;;;;;;4.47;3.73;;;-0.30;99.90;;;-0.60;80.18;100374.59;5065940;28;20673;-65
2023/02/04 03:47:53;;;;;;;6.10;4.13;;;-0.30;99.90;;;-0.60;80.11;100384.72;5068249;28;20210;-65
2023/02/04 03:50:21;;;;;;;5.83;3.90;;;-0.30;99.90;;;-0.60;79.95;100387.25;5064192;28;20296;-64
2023/02/04 03:52:51;;;;;;;6.30;3.10;;;-0.30;99.90;;;-0.60;80.03;100394.00;5068470;28;20206;-64
2023/02/04 03:55:20;;;;;;;7.47;3.50;;;-0.30;99.90;;;-0.62;79.50;100399.00;5061284;28;20299;-63
2023/02/04 03:57:48;;;;;;;5.77;3.80;;;-0.30;99.90;;;-0.64;79.83;100405.66;5068847;28;20214;-64
2023/02/04 04:00:17;;;;;;;4.67;3.60;;;-0.40;99.90;;;-0.66;79.38;100425.00;5062552;28;20232;-64
2023/02/04 04:02:46;;;;;;;5.33;3.30;;;-0.40;99.90;;;-0.66;79.28;100427.53;5066137;28;20209;-63
2023/02/04 04:05:16;;;;;;;4.07;3.17;;;-0.40;99.90;;;-0.68;78.94;100439.25;5066801;28;20218;-64
2023/02/04 04:07:44;;;;;;;5.80;3.63;;;-0.50;99.90;;;-0.73;78.70;100448.34;5067648;28;20212;-64
2023/02/04 04:10:13;;;;;;;5.17;3.67;;;-0.50;99.90;;;-0.77;78.85;100459.13;5066128;28;20213;-64
2023/02/04 04:12:41;;;;;;;4.97;3.30;;;-0.50;99.90;;;-0.85;78.47;100456.25;5066785;28;20278;-63
2023/02/04 04:15:10;;;;;;;4.30;3.30;;;-0.60;99.90;;;-0.89;78.48;100474.66;5065945;28;20230;-63
2023/02/04 04:17:39;;;;;;;3.90;3.40;;;-0.60;99.90;;;-0.91;78.78;100481.31;5059766;28;20214;-63
2023/02/04 04:20:08;;;;;;;5.73;3.60;;;-0.70;99.90;;;-0.95;78.75;100489.59;5065553;28;20233;-64
2023/02/04 04:22:39;;;;;;;5.87;4.03;;;-0.70;99.90;;;-0.99;78.77;100498.72;5054886;28;20224;-63
2023/02/04 04:25:08;;;;;;;5.07;3.50;;;-0.80;99.90;;;-1.02;78.97;100505.31;5072079;28;20194;-64
2023/02/04 04:27:37;;;;;;;5.67;3.10;;;-0.80;99.90;;;-1.08;78.74;100508.44;5073752;28;20206;-63
2023/02/04 04:30:06;;;;;;;4.63;3.40;;;-0.80;99.90;;;-1.09;79.08;100516.81;5069227;28;20222;-62
2023/02/04 04:32:35;;;;;;;4.67;3.50;;;-0.80;99.90;;;-1.12;78.81;100534.38;5072395;28;20191;-64
2023/02/04 04:35:03;;;;;;;5.63;3.90;;;-0.90;99.90;;;-1.17;79.10;100548.50;5071949;28;20352;-63
2023/02/04 04:37:33;;;;;;;5.13;3.60;;;-0.90;99.90;;;-1.14;79.42;100558.75;5074490;28;20209;-64
2023/02/04 04:40:03;;;;;;;6.10;4.20;;;-0.90;99.90;;;-1.12;79.67;100563.88;5073429;28;20202;-64
2023/02/04 04:42:31;;;;;;;5.37;3.83;;;-0.90;99.90;;;-1.10;79.98;100569.88;5073275;28;20221;-62
2023/02/04 04:45:00;;;;;;;5.77;3.97;;;-0.90;99.90;;;-1.07;79.73;100575.94;5072234;28;20206;-64
2023/02/04 04:47:28;;;;;;;4.10;3.57;;;-0.80;99.90;;;-1.04;79.87;100578.56;5070324;28;20206;-63
2023/02/04 04:49:56;;;;;;;6.70;3.93;;;-0.80;99.90;;;-1.03;79.57;100581.94;5068572;28;20232;-63
2023/02/04 04:52:25;;;;;;;6.77;4.40;;;-0.70;99.90;;;-1.00;79.51;100598.13;5071645;28;20202;-65
2023/02/04 04:54:53;;;;;;;5.77;4.10;;;-0.70;99.90;;;-0.97;79.67;100607.50;5072445;28;20252;-62
2023/02/04 04:57:23;;;;;;;6.40;4.10;;;-0.70;99.90;;;-0.95;79.70;100594.97;5071992;28;20573;-63
2023/02/04 04:59:52;;;;;;;7.20;5.40;;;-0.70;99.90;;;-0.90;79.88;100608.66;5069820;28;20202;-65
2023/02/04 05:02:20;;;;;;;7.87;4.40;;;-0.50;99.90;;;-0.85;79.52;100628.28;5067631;28;20213;-63
2023/02/04 05:04:49;;;;;;;8.50;4.47;;;-0.60;99.90;;;-0.84;79.13;100624.97;5069446;28;20209;-64
2023/02/04 05:07:17;;;;;;;6.03;4.57;;;-0.60;99.90;;;-0.78;79.22;100635.34;5064644;28;20284;-65
2023/02/04 05:09:46;;;;;;;5.80;4.77;;;-0.50;99.90;;;-0.76;79.19;100637.94;5070722;28;20198;-64
2023/02/04 05:12:14;;;;;;;7.50;4.57;;;-0.50;99.90;;;-0.73;79.28;100638.09;5068340;28;20236;-65
2023/02/04 05:14:44;;;;;;;7.23;4.90;;;-0.50;99.90;;;-0.72;79.34;100649.94;5062898;28;20202;-62
2023/02/04 05:17:12;;;;;;;7.30;5.00;;;-0.50;99.90;;;-0.70;78.64;100661.00;5070568;28;20202;-63
2023/02/04 05:19:41;;;;;;;5.53;4.07;;;-0.40;99.90;;;-0.67;78.90;100673.75;5065885;28;20213;-63
2023/02/04 05:22:09;;;;;;;8.07;4.27;;;-0.40;99.90;;;-0.67;78.80;100668.69;5070896;28;20213;-62
2023/02/04 05:24:37;;;;;;;5.63;4.20;;;-0.40;99.90;;;-0.66;78.71;100678.03;5069863;28;20221;-63
2023/02/04 05:27:06;;;;;;;7.10;4.30;;;-0.40;99.90;;;-0.62;79.37;100690.03;5071769;28;20783;-66
2023/02/04 05:29:34;;;;;;;5.47;3.77;;;-0.30;99.90;;;-0.58;78.92;100702.00;5070322;28;20241;-63
2023/02/04 05:32:05;;;;;;;6.53;4.33;;;-0.30;99.90;;;-0.57;78.51;100703.75;5064535;28;20627;-64
2023/02/04 05:34:33;;;;;;;8.53;4.57;;;-0.30;99.90;;;-0.55;78.40;100709.75;5048522;28;20202;-62
2023/02/04 05:37:02;;;;;;;7.03;4.63;;;-0.30;99.90;;;-0.55;78.45;100714.81;5052644;28;20226;-64
2023/02/04 05:39:30;;;;;;;5.77;4.43;;;-0.30;99.90;;;-0.55;78.26;100724.94;5049259;28;20558;-62
2023/02/04 05:41:58;;;;;;;6.53;3.80;;;-0.30;99.90;;;-0.53;78.10;100725.84;5042197;28;20255;-63
2023/02/04 05:44:27;;;;;;;7.10;3.30;;;-0.30;99.90;;;-0.49;78.08;100740.38;5053969;28;20238;-63
2023/02/04 05:46:55;;;;;;;7.53;3.97;;;-0.20;99.90;;;-0.47;77.81;100747.19;5053740;28;20209;-63
2023/02/04 05:49:25;;;;;;;5.37;3.73;;;-0.30;99.90;;;-0.45;77.80;100748.97;5051679;28;20220;-62
2023/02/04 05:51:53;;;;;;;4.50;3.40;;;-0.20;99.90;;;-0.44;77.58;100757.41;5049749;28;20206;-62
2023/02/04 05:54:22;;;;;;;5.47;3.70;;;-0.20;99.90;;;-0.45;77.23;100765.81;5054475;28;20663;-63
2023/02/04 05:56:50;;;;;;;5.73;3.50;;;-0.20;99.90;;;-0.48;76.73;100781.72;5052505;28;20226;-62
2023/02/04 05:59:19;;;;;;;5.07;3.40;;;-0.20;99.90;;;-0.50;76.24;100789.28;5046255;28;20677;-62
2023/02/04 06:01:47;;;;;;;5.63;3.50;;;-0.20;99.90;;;-0.53;76.40;100801.78;5053416;28;20202;-65
2023/02/04 06:04:16;;;;;;;4.83;3.30;;;-0.30;99.90;;;-0.53;76.33;100819.50;5053409;28;20206;-62
2023/02/04 06:06:46;;;;;;;8.03;3.80;;;-0.30;99.90;;;-0.54;76.03;100825.38;5052542;28;20271;-62
2023/02/04 06:09:15;;;;;;;4.17;3.27;;;-0.30;99.90;;;-0.53;75.96;100827.09;5052202;28;20214;-62
2023/02/04 06:11:43;;;;;;;4.93;3.37;;;-0.30;99.90;;;-0.52;75.99;100840.63;5048834;28;20206;-62
2023/02/04 06:14:12;;;;;;;4.17;2.80;;;-0.30;99.90;;;-0.52;75.72;100856.66;5048111;28;20206;-63
2023/02/04 06:16:40;;;;;;;4.40;3.40;;;-0.30;99.90;;;-0.56;75.66;100857.31;5047316;28;20593;-61
2023/02/04 06:19:09;;;;;;;4.17;3.60;;;-0.30;99.90;;;-0.57;75.58;100858.13;5050903;28;20206;-61
2023/02/04 06:21:37;;;;;;;6.17;3.67;;;-0.30;99.90;;;-0.54;75.57;100875.13;5053003;28;20201;-61
2023/02/04 06:24:07;;;;;;;5.80;3.90;;;-0.30;99.90;;;-0.54;75.41;100885.25;5053043;28;20213;-61
2023/02/04 06:26:35;;;;;;;5.70;3.43;;;-0.30;99.90;;;-0.59;75.06;100879.97;5053129;28;20206;-62
2023/02/04 06:29:04;;;;;;;3.87;3.07;;;-0.30;99.90;;;-0.62;75.27;100884.91;5051482;28;20581;-62
2023/02/04 06:31:32;;;;;;;5.83;3.70;;;-0.40;99.90;;;-0.67;74.88;100898.97;5050330;28;20340;-61
2023/02/04 06:34:01;;;;;;;5.77;3.50;;;-0.40;99.90;;;-0.71;74.78;100904.69;5051103;28;20206;-62
2023/02/04 06:36:29;;;;;;;6.40;3.43;;;-0.50;99.90;;;-0.76;74.39;100916.28;5053376;28;20674;-63
2023/02/04 06:38:58;;;;;;;6.53;3.87;;;-0.50;99.90;;;-0.82;74.70;100915.97;5050959;28;20514;-64
2023/02/04 06:41:28;;;;;;;5.33;3.97;;;-0.60;99.90;;;-0.84;74.68;100923.50;5051747;28;20198;-60
2023/02/04 06:43:56;;;;;;;5.17;3.67;;;-0.60;99.90;;;-0.88;74.71;100929.19;5052257;28;20276;-62
2023/02/04 06:46:25;;;;;;;5.83;3.37;;;-0.60;99.90;;;-0.89;74.72;100931.63;5046936;28;20700;-64
2023/02/04 06:48:53;;;;;;;5.57;3.87;;;-0.70;99.90;;;-0.97;74.45;100939.72;5044533;28;20210;-60
2023/02/04 06:51:22;;;;;;;8.87;4.40;;;-0.70;99.90;;;-1.03;74.77;100941.06;5048465;28;20213;-62
2023/02/04 06:53:51;;;;;;;8.00;4.50;;;-0.80;99.90;;;-1.04;74.61;100955.38;5044399;28;20754;-63
2023/02/04 06:56:19;;;;;;;8.13;4.63;;;-0.80;99.90;;;-1.07;75.14;100955.25;5046342;28;20339;-63
2023/02/04 06:58:49;;;;;;;5.90;3.87;;;-0.80;99.90;;;-1.04;75.07;100975.63;5044937;28;20678;-64
2023/02/04 07:01:17;;;;;;;5.97;3.90;;;-0.80;99.90;;;-0.99;75.01;100975.88;5043782;28;20229;-65
2023/02/04 07:03:46;;;;;;;6.13;3.80;;;-0.80;99.90;;;-0.95;75.17;100985.34;5038502;28;20306;-65
2023/02/04 07:06:14;;;;;;;7.10;4.53;;;-0.70;99.90;;;-0.91;74.59;100992.28;5039349;28;20467;-63
2023/02/04 07:08:43;;;;;;;5.97;4.00;;;-0.70;99.90;;;-0.82;74.56;100990.19;5040895;28;20209;-64
2023/02/04 07:11:11;;;;;;;9.90;5.38;;;-0.60;99.90;;;-0.70;74.52;101002.63;5038634;28;20443;-66
2023/02/04 07:13:39;;;;;;;7.63;4.20;;;-0.50;99.90;;;-0.62;73.88;101016.50;5042234;28;20249;-63
2023/02/04 07:16:09;;;;;;;5.83;3.80;;;-0.40;99.90;;;-0.55;73.79;101018.53;5048653;28;20259;-65
2023/02/04 07:18:38;;;;;;;6.70;3.90;;;-0.40;99.90;;;-0.46;73.41;101019.78;5041917;28;20390;-64
2023/02/04 07:21:06;;;;;;;4.40;3.33;;;-0.30;99.90;;;-0.38;72.49;101032.00;5043716;28;20275;-65
2023/02/04 07:23:34;;;;;;;6.43;3.13;;;-0.20;99.90;;;-0.29;72.14;101035.00;5044443;28;20206;-64
2023/02/04 07:26:03;;;;;;;5.80;3.37;;;-0.10;99.90;;;-0.19;72.19;101040.47;5044055;28;20206;-66
2023/02/04 07:28:31;;;;;;;4.13;3.00;;;0.00;99.90;;;-0.09;71.43;101042.66;5043838;28;20233;-63
2023/02/04 07:31:00;;;;;;;7.07;3.27;;;0.10;99.90;;;0.00;70.94;101050.72;5047767;28;20612;-64
2023/02/04 07:33:30;;;;;;;4.68;3.15;;;0.20;99.90;;;0.04;70.18;101056.75;5044619;28;20573;-64
2023/02/04 07:35:58;;;;;;;3.37;2.87;;;0.30;99.90;;;0.10;70.25;101060.44;5047564;28;20229;-63
2023/02/04 07:38:26;;;;;;;3.50;2.47;;;0.40;99.90;;;0.19;69.65;101067.63;5040015;28;20293;-65
2023/02/04 07:40:55;;;;;;;4.97;2.50;;;0.40;99.90;;;0.31;68.79;101070.72;5046239;28;20213;-66
2023/02/04 07:43:24;;;;;;;4.97;2.63;;;0.60;99.90;;;0.46;68.86;101088.31;5042221;28;20301;-65
2023/02/04 07:45:52;;;;;;;5.23;2.80;;;0.70;99.90;;;0.59;68.61;101079.59;5046427;28;20213;-64
2023/02/04 07:48:21;;;;;;;3.80;2.43;;;0.80;99.90;;;0.76;67.59;101083.75;5048445;28;20209;-66
2023/02/04 07:50:50;;;;;;;4.43;2.60;;;1.00;99.90;;;0.87;67.28;101082.56;5048088;28;20681;-63
2023/02/04 07:53:19;;;;;;;4.43;2.60;;;1.10;99.90;;;0.99;66.30;101094.91;5048293;28;20272;-65
2023/02/04 07:55:47;;;;;;;4.23;2.60;;;1.20;99.90;;;1.13;65.92;101103.13;5047370;28;20198;-65
2023/02/04 07:58:16;;;;;;;4.03;2.10;;;1.40;99.90;;;1.29;65.05;101103.00;5046424;28;20221;-64
2023/02/04 08:00:44;;;;;;;3.77;2.30;;;1.50;99.90;;;1.36;63.94;101107.56;5046263;28;20218;-65
2023/02/04 08:03:12;;;;;;;6.10;2.23;;;1.60;99.90;;;1.41;63.09;101113.69;5050555;28;20240;-63
2023/02/04 08:05:41;;;;;;;4.80;2.33;;;1.70;99.90;;;1.47;63.62;101123.22;5052432;28;20658;-66
2023/02/04 08:08:11;;;;;;;4.47;2.17;;;1.70;99.90;;;1.58;62.96;101122.00;5052282;28;20262;-64
2023/02/04 08:10:40;;;;;;;4.10;1.90;;;1.80;99.90;;;1.71;62.05;101128.47;5047251;28;20637;-63
2023/02/04 08:13:08;;;;;;;3.83;2.20;;;2.00;99.90;;;1.78;61.20;101122.84;5051544;28;20240;-65
2023/02/04 08:15:36;;;;;;;5.03;2.40;;;2.00;99.90;;;1.91;61.46;101117.47;5052127;28;20214;-63
2023/02/04 08:18:05;;;;;;;2.10;1.90;;;2.20;99.90;;;2.05;60.04;101124.75;5045948;28;20233;-64
2023/02/04 08:20:33;;;;;;;3.77;2.47;;;2.20;99.90;;;2.03;60.19;101121.31;5048403;28;20738;-68
2023/02/04 08:23:02;;;;;;;2.77;1.70;;;2.30;99.90;;;2.16;60.23;101142.16;5054463;28;20213;-64
2023/02/04 08:25:32;;;;;;;5.33;2.20;;;2.30;99.90;;;2.18;59.19;101153.28;5052643;28;20206;-64
2023/02/04 08:28:00;;;;;;;4.00;2.03;;;2.40;99.90;;;2.22;59.31;101144.09;5052525;28;20222;-66
2023/02/04 08:30:29;;;;;;;3.63;2.50;;;2.50;99.90;;;2.29;58.57;101157.94;5051982;28;20235;-65
2023/02/04 08:32:58;;;;;;;2.53;1.70;;;2.60;99.90;;;2.33;57.92;101162.34;5050856;28;20228;-66
2023/02/04 08:35:26;;;;;;;2.73;1.87;;;2.60;99.90;;;2.34;58.30;101169.16;5050492;28;20206;-68
2023/02/04 08:37:55;;;;;;;2.60;1.83;;;2.60;99.90;;;2.34;57.95;101177.66;5049185;28;20264;-68
2023/02/04 08:40:23;;;;;;;2.50;1.63;;;2.60;99.90;;;2.37;57.38;101172.69;5051310;28;20637;-68
2023/02/04 08:42:53;;;;;;;3.73;2.20;;;2.70;99.90;;;2.45;57.12;101182.28;5052861;28;20716;-70
2023/02/04 08:45:22;;;;;;;3.87;2.27;;;2.70;99.90;;;2.50;58.03;101181.66;5055569;28;20259;-67
2023/02/04 08:47:51;;;;;;;2.53;1.80;;;2.80;99.90;;;2.63;56.24;101180.47;5052349;28;20206;-69
2023/02/04 08:50:19;;;;;;;2.93;1.90;;;2.80;99.90;;;2.73;56.80;101176.63;5051359;28;20210;-65
2023/02/04 08:52:48;;;;;;;1.67;1.30;;;3.00;99.90;;;2.93;56.67;101172.25;5047489;28;20271;-66
2023/02/04 08:55:16;;;;;;;3.60;1.50;;;3.20;99.90;;;2.98;54.93;101166.53;5051245;28;20202;-65
2023/02/04 08:57:45;;;;;;;1.80;1.30;;;3.20;99.90;;;2.99;53.96;101164.88;5046567;28;20218;-65
2023/02/04 09:00:16;;;;;;;2.53;1.27;;;3.30;99.90;;;2.98;54.64;101168.19;5053638;28;20205;-65
2023/02/04 09:02:45;;;;;;;2.77;1.60;;;3.30;99.90;;;3.12;57.42;101172.13;5051635;28;20202;-65
2023/02/04 09:05:13;;;;;;;2.40;1.77;;;3.50;99.90;;;3.94;54.81;101175.84;5052936;28;20194;-66
2023/02/04 09:07:42;;;;;;;3.57;1.80;;;4.30;99.90;;;6.57;54.36;101172.22;5046279;28;20213;-69
2023/02/04 09:10:10;;;;;;;2.80;1.53;;;7.00;99.90;;;9.64;40.25;101164.50;5043691;28;20278;-69
2023/02/04 09:12:39;;;;;;;2.27;1.70;;;9.40;99.40;;;12.53;36.54;101162.38;5044904;28;20241;-72
2023/02/04 09:15:10;;;;;;;2.10;1.40;;;12.20;92.30;;;15.22;29.09;101159.63;5049766;28;20245;-65
2023/02/04 09:17:42;;;;;;;1.43;1.30;;;14.60;70.50;;;16.87;25.25;101158.75;5051750;28;20229;-67
2023/02/04 09:20:12;;;;;;;2.20;1.07;;;16.30;59.80;;;18.48;22.87;101160.25;5051793;28;20198;-66
2023/02/04 09:22:41;;;;;;;2.33;1.30;;;18.10;55.00;;;19.74;20.66;101160.16;5048917;28;20562;-67
2023/02/04 09:25:09;;;;;;;1.90;1.60;;;19.30;49.70;;;20.53;19.69;101163.66;5046504;28;20575;-65
2023/02/04 09:27:38;;;;;;;1.23;1.08;;;20.20;47.00;;;21.53;19.07;101163.47;5050881;28;20213;-66
2023/02/04 09:30:08;;;;;;;2.10;1.77;;;21.40;45.90;;;23.05;17.61;101159.72;5049209;28;20245;-67
2023/02/04 09:32:36;;;;;;;1.30;1.20;;;23.00;43.90;;;23.87;16.37;101157.59;5049500;28;20214;-68
2023/02/04 09:35:07;;;;;;;2.00;1.30;;;23.60;41.50;;;24.42;15.88;101169.81;5053017;28;20218;-69
2023/02/04 09:37:35;;;;;;;1.42;1.33;;;24.60;40.60;;;25.13;15.00;101175.72;5047384;28;20629;-66
2023/02/04 09:40:06;;;;;;;2.90;1.65;;;25.00;39.10;;;26.01;15.04;101177.81;5050438;28;20221;-67
2023/02/04 09:42:34;;;;;;;1.73;1.40;;;25.80;38.40;;;27.02;13.87;101175.34;5048819;28;20195;-68
2023/02/04 09:45:03;;;;;;;1.48;1.38;;;26.70;37.10;;;27.69;13.86;101174.56;5050425;28;20214;-68
2023/02/04 09:47:32;;;;;;;1.80;1.60;;;27.20;36.10;;;28.28;12.94;101179.53;5045270;28;20242;-66
2023/02/04 09:50:00;;;;;;;1.15;1.10;;;28.00;35.00;;;28.68;12.76;101190.03;5052812;28;20198;-67
2023/02/04 09:52:30;;;;;;;1.77;1.45;;;28.30;33.90;;;29.28;12.05;101191.19;5050433;28;20745;-68
2023/02/04 09:54:59;;;;;;;2.80;1.17;;;29.00;33.30;;;29.92;11.65;101193.59;5051290;28;20267;-66
2023/02/04 09:57:29;;;;;;;1.65;1.48;;;29.30;32.30;;;30.56;11.29;101188.72;5052287;28;20542;-65
2023/02/04 09:59:57;;;;;;;1.50;1.20;;;29.90;32.60;;;31.15;11.45;101201.84;5049487;28;20263;-66
2023/02/04 10:02:26;;;;;;;1.80;1.42;;;30.40;32.10;;;31.41;11.16;101197.13;5049479;28;20304;-66
2023/02/04 10:04:57;;;;;;;1.50;1.40;;;30.70;30.90;;;31.84;10.82;101193.56;5045437;28;20267;-65
2023/02/04 10:07:26;;;;;;;1.42;1.23;;;30.90;30.50;;;32.09;10.39;101197.75;5052032;28;20202;-63
2023/02/04 10:09:56;;;;;;;1.55;1.25;;;31.30;29.90;;;32.25;10.06;101205.28;5047070;28;20209;-66
2023/02/04 10:12:26;;;;;;;2.00;1.30;;;31.60;29.80;;;32.46;9.76;101205.31;5050182;28;20205;-66
2023/02/04 10:14:54;;;;;;;1.63;1.30;;;31.80;29.30;;;32.22;9.71;101203.75;5056604;28;20213;-68
2023/02/04 10:17:23;;;;;;;2.42;1.60;;;31.40;28.60;;;32.56;9.68;101195.56;5053752;28;20202;-66
2023/02/04 10:19:52;;;;;;;2.33;1.38;;;31.70;29.40;;;32.82;9.41;101200.47;5056120;28;20249;-66
2023/02/04 10:22:22;;;;;;;3.35;1.70;;;31.80;28.90;;;33.14;9.41;101202.97;5058753;28;20202;-66